createdAt,value
2022-09-25T00:01:19.380Z,62.57
2022-09-25T00:03:47.960Z,55.00
2022-09-25T00:06:21.460Z,56.70
2022-09-25T00:08:49.399Z,49.37
2022-09-25T00:11:22.352Z,47.20
2022-09-25T00:13:50.574Z,43.87
2022-09-25T00:16:22.342Z,44.83
2022-09-25T00:19:09.551Z,44.13
2022-09-25T00:21:37.778Z,48.20
2022-09-25T00:24:07.780Z,46.80
2022-09-25T00:26:39.422Z,54.70
2022-09-25T00:29:07.936Z,45.80
2022-09-25T00:31:35.530Z,52.00
2022-09-25T00:34:05.123Z,51.20
2022-09-25T00:36:33.153Z,54.00
2022-09-25T00:39:00.559Z,55.10
2022-09-25T00:41:31.972Z,50.17
2022-09-25T00:44:01.262Z,51.50
2022-09-25T00:46:43.914Z,50.23
2022-09-25T00:49:24.400Z,49.30
2022-09-25T00:52:01.411Z,51.37
2022-09-25T00:54:36.556Z,47.20
2022-09-25T00:57:08.165Z,47.77
2022-09-25T00:59:42.331Z,40.00
2022-09-25T01:02:14.251Z,43.30
2022-09-25T01:04:46.153Z,47.60
2022-09-25T01:07:15.582Z,48.70
2022-09-25T01:09:44.801Z,50.33
2022-09-25T01:12:12.179Z,49.67
2022-09-25T01:14:40.209Z,49.47
2022-09-25T01:17:22.712Z,43.80
2022-09-25T01:20:22.066Z,51.30
2022-09-25T01:23:01.377Z,48.30
2022-09-25T01:25:47.321Z,51.47
2022-09-25T01:28:50.438Z,53.00
2022-09-25T01:31:39.214Z,52.40
2022-09-25T01:34:18.983Z,48.47
2022-09-25T01:37:29.819Z,51.80
2022-09-25T01:40:06.353Z,45.97
2022-09-25T01:43:02.699Z,55.30
2022-09-25T01:45:39.870Z,52.17
2022-09-25T01:48:09.382Z,53.33
2022-09-25T01:50:51.094Z,53.33
2022-09-25T01:53:25.130Z,54.30
2022-09-25T01:55:58.441Z,56.27
2022-09-25T01:58:34.062Z,55.87
2022-09-25T02:01:06.546Z,53.70
2022-09-25T02:03:44.115Z,51.70
2022-09-25T02:06:17.454Z,57.40
2022-09-25T02:09:01.121Z,53.97
2022-09-25T02:11:34.573Z,47.60
2022-09-25T02:14:08.808Z,56.10
2022-09-25T02:16:39.024Z,56.07
2022-09-25T02:19:25.412Z,54.67
2022-09-25T02:22:11.193Z,52.67
2022-09-25T02:24:59.113Z,48.60
2022-09-25T02:27:29.831Z,45.13
2022-09-25T02:29:58.424Z,48.30
2022-09-25T02:32:30.359Z,49.47
2022-09-25T02:34:59.824Z,39.77
2022-09-25T02:37:27.658Z,46.40
2022-09-25T02:40:00.505Z,40.67
2022-09-25T02:42:36.843Z,45.27
2022-09-25T02:45:31.446Z,40.70
2022-09-25T02:48:14.123Z,46.93
2022-09-25T02:51:17.839Z,44.30
2022-09-25T02:53:59.875Z,42.90
2022-09-25T02:56:37.156Z,38.67
2022-09-25T02:59:11.903Z,46.50
2022-09-25T03:01:41.968Z,47.93
2022-09-25T03:04:10.649Z,49.50
2022-09-25T03:06:39.752Z,50.03
2022-09-25T03:09:09.806Z,51.20
2022-09-25T03:11:42.243Z,50.30
2022-09-25T03:14:10.299Z,53.77
2022-09-25T03:16:51.472Z,51.00
2022-09-25T03:19:19.876Z,50.07
2022-09-25T03:21:48.095Z,56.03
2022-09-25T03:24:15.719Z,56.37
2022-09-25T03:26:44.512Z,51.87
2022-09-25T03:29:13.153Z,46.90
2022-09-25T03:31:42.701Z,40.77
2022-09-25T03:34:12.170Z,34.70
2022-09-25T03:36:39.660Z,24.77
2022-09-25T03:39:07.681Z,24.87
2022-09-25T03:41:35.586Z,22.00
2022-09-25T03:44:03.730Z,23.43
2022-09-25T03:46:34.610Z,17.70
2022-09-25T03:49:04.017Z,19.80
2022-09-25T03:51:32.356Z,17.10
2022-09-25T03:53:59.840Z,16.57
2022-09-25T03:56:29.669Z,16.30
2022-09-25T03:58:57.650Z,14.07
2022-09-25T04:01:27.543Z,12.60
2022-09-25T04:03:55.355Z,11.20
2022-09-25T04:06:25.135Z,11.00
2022-09-25T04:08:53.644Z,13.10
2022-09-25T04:11:24.328Z,13.60
2022-09-25T04:13:53.040Z,12.73
2022-09-25T04:16:21.165Z,11.30
2022-09-25T04:18:49.457Z,11.93
2022-09-25T04:21:17.097Z,12.40
2022-09-25T04:24:04.496Z,12.00
2022-09-25T04:26:32.503Z,12.73
2022-09-25T04:29:03.374Z,11.70
2022-09-25T04:31:31.781Z,10.20
2022-09-25T04:34:00.927Z,11.77
2022-09-25T04:36:28.464Z,11.70
2022-09-25T04:38:55.717Z,11.77
2022-09-25T04:41:23.257Z,10.13
2022-09-25T04:43:50.490Z,11.57
2022-09-25T04:46:22.020Z,8.03
2022-09-25T04:48:49.931Z,7.80
2022-09-25T04:51:17.693Z,8.77
2022-09-25T04:53:46.043Z,10.90
2022-09-25T04:56:16.006Z,10.87
2022-09-25T04:58:46.326Z,9.57
2022-09-25T05:01:13.839Z,9.80
2022-09-25T05:03:41.414Z,10.93
2022-09-25T05:06:09.858Z,12.07
2022-09-25T05:08:37.686Z,11.07
2022-09-25T05:11:05.009Z,8.60
2022-09-25T05:13:32.491Z,10.03
2022-09-25T05:15:59.908Z,12.33
2022-09-25T05:18:27.686Z,11.30
2022-09-25T05:20:55.054Z,9.70
2022-09-25T05:23:23.826Z,9.83
2022-09-25T05:25:53.114Z,11.60
2022-09-25T05:28:20.562Z,9.50
2022-09-25T05:30:48.274Z,9.73
2022-09-25T05:33:15.692Z,10.80
2022-09-25T05:35:43.010Z,9.50
2022-09-25T05:38:10.859Z,9.17
2022-09-25T05:40:39.258Z,8.77
2022-09-25T05:43:07.135Z,8.33
2022-09-25T05:45:37.117Z,7.80
2022-09-25T05:48:07.978Z,9.27
2022-09-25T05:50:36.012Z,9.07
2022-09-25T05:53:05.232Z,8.53
2022-09-25T05:55:33.200Z,9.37
2022-09-25T05:58:04.302Z,9.20
2022-09-25T06:00:33.166Z,10.20
2022-09-25T06:03:01.969Z,11.20
2022-09-25T06:05:30.000Z,11.57
2022-09-25T06:07:57.396Z,10.80
2022-09-25T06:10:28.206Z,10.13
2022-09-25T06:12:58.851Z,13.20
2022-09-25T06:15:37.537Z,11.57
2022-09-25T06:18:09.148Z,8.30
2022-09-25T06:20:36.825Z,10.37
2022-09-25T06:23:04.346Z,11.07
2022-09-25T06:25:32.816Z,11.30
2022-09-25T06:28:01.570Z,12.70
2022-09-25T06:30:34.181Z,12.03
2022-09-25T06:33:04.371Z,11.57
2022-09-25T06:35:31.655Z,14.20
2022-09-25T06:38:00.687Z,13.50
2022-09-25T06:40:30.145Z,12.77
2022-09-25T06:42:59.209Z,11.77
2022-09-25T06:45:28.678Z,15.40
2022-09-25T06:48:08.775Z,12.30
2022-09-25T06:50:55.311Z,14.93
2022-09-25T06:53:24.708Z,13.00
2022-09-25T06:55:55.455Z,12.57
2022-09-25T06:58:25.234Z,14.00
2022-09-25T07:00:55.162Z,13.67
2022-09-25T07:03:42.093Z,12.13
2022-09-25T07:06:11.021Z,11.97
2022-09-25T07:08:38.921Z,12.43
2022-09-25T07:11:06.948Z,9.60
2022-09-25T07:13:36.046Z,14.53
2022-09-25T07:16:10.200Z,13.10
2022-09-25T07:18:37.925Z,11.90
2022-09-25T07:21:13.915Z,13.20
2022-09-25T07:23:42.370Z,11.43
2022-09-25T07:26:12.176Z,13.53
2022-09-25T07:28:41.946Z,11.83
2022-09-25T07:31:23.076Z,13.23
2022-09-25T07:33:50.469Z,12.80
2022-09-25T07:36:19.286Z,13.33
2022-09-25T07:38:53.701Z,13.50
2022-09-25T07:41:23.481Z,12.60
2022-09-25T07:44:17.767Z,13.57
2022-09-25T07:46:45.870Z,13.63
2022-09-25T07:49:14.513Z,15.27
2022-09-25T07:51:42.494Z,14.03
2022-09-25T07:54:09.955Z,12.87
2022-09-25T07:56:38.409Z,13.03
2022-09-25T07:59:06.671Z,14.10
2022-09-25T08:01:37.194Z,14.53
2022-09-25T08:04:07.753Z,13.87
2022-09-25T08:06:35.985Z,14.10
2022-09-25T08:09:08.106Z,14.90
2022-09-25T08:11:37.959Z,15.20
2022-09-25T08:14:05.337Z,14.70
2022-09-25T08:16:32.853Z,14.50
2022-09-25T08:19:00.167Z,16.57
2022-09-25T08:21:27.959Z,16.53
2022-09-25T08:23:56.470Z,15.00
2022-09-25T08:26:24.086Z,14.87
2022-09-25T08:28:52.038Z,15.83
2022-09-25T08:31:19.783Z,17.13
2022-09-25T08:33:49.276Z,14.30
2022-09-25T08:36:17.815Z,18.47
2022-09-25T08:38:45.578Z,16.93
2022-09-25T08:41:33.128Z,17.80
2022-09-25T08:44:04.878Z,18.07
2022-09-25T08:46:56.743Z,17.40
2022-09-25T08:49:28.398Z,18.00
2022-09-25T08:52:01.980Z,14.43
2022-09-25T08:54:31.740Z,17.93
2022-09-25T08:57:16.076Z,14.90
2022-09-25T08:59:46.536Z,17.10
2022-09-25T09:02:22.507Z,16.67
2022-09-25T09:04:56.930Z,19.90
2022-09-25T09:07:39.012Z,16.77
2022-09-25T09:10:06.805Z,18.30
2022-09-25T09:12:54.633Z,15.90
2022-09-25T09:15:33.264Z,18.77
2022-09-25T09:18:09.212Z,16.07
2022-09-25T09:20:46.026Z,17.90
2022-09-25T09:23:19.091Z,17.47
2022-09-25T09:25:59.918Z,15.57
2022-09-25T09:28:42.178Z,16.57
2022-09-25T09:31:32.439Z,19.93
2022-09-25T09:34:52.957Z,17.87
2022-09-25T09:37:56.639Z,17.10
2022-09-25T09:40:47.239Z,13.77
2022-09-25T09:43:24.851Z,11.30
2022-09-25T09:45:58.957Z,12.60
2022-09-25T09:48:43.203Z,11.57
2022-09-25T09:51:23.335Z,9.87
2022-09-25T09:54:04.807Z,10.50
2022-09-25T09:56:35.354Z,9.20
2022-09-25T09:59:06.397Z,9.20
2022-09-25T10:01:41.404Z,8.60
2022-09-25T10:04:15.711Z,9.53
2022-09-25T10:06:52.080Z,9.63
2022-09-25T10:09:19.437Z,11.43
2022-09-25T10:12:03.598Z,12.63
2022-09-25T10:14:37.177Z,11.97
2022-09-25T10:17:06.454Z,9.87
2022-09-25T10:19:52.974Z,10.70
2022-09-25T10:22:25.966Z,8.90
2022-09-25T10:25:02.619Z,9.27
2022-09-25T10:27:38.326Z,10.53
2022-09-25T10:30:09.486Z,10.60
2022-09-25T10:32:44.886Z,10.70
2022-09-25T10:35:18.724Z,12.90
2022-09-25T10:37:51.849Z,10.80
2022-09-25T10:40:37.849Z,11.07
2022-09-25T10:43:17.119Z,11.07
2022-09-25T10:45:44.915Z,12.27
2022-09-25T10:48:45.591Z,12.00
2022-09-25T10:51:18.663Z,11.00
2022-09-25T10:54:09.970Z,9.53
2022-09-25T10:56:38.966Z,9.53
2022-09-25T10:59:31.530Z,9.40
2022-09-25T11:01:58.945Z,11.00
2022-09-25T11:04:32.013Z,11.77
2022-09-25T11:07:04.733Z,10.77
2022-09-25T11:09:33.637Z,10.23
2022-09-25T11:12:08.570Z,9.40
2022-09-25T11:14:36.783Z,9.10
2022-09-25T11:17:10.048Z,9.77
2022-09-25T11:19:38.813Z,9.40
2022-09-25T11:22:36.132Z,9.20
2022-09-25T11:25:13.474Z,6.47
2022-09-25T11:27:54.309Z,6.70
2022-09-25T11:30:22.989Z,8.23
2022-09-25T11:33:02.237Z,6.30
2022-09-25T11:35:55.129Z,6.20
2022-09-25T11:38:52.310Z,5.40
2022-09-25T11:41:53.601Z,8.20
2022-09-25T11:44:34.216Z,5.80
2022-09-25T11:47:24.159Z,6.37
2022-09-25T11:49:54.698Z,5.33
2022-09-25T11:52:37.015Z,5.33
2022-09-25T11:55:36.461Z,5.17
2022-09-25T11:58:26.613Z,5.53
2022-09-25T12:01:06.025Z,4.80
2022-09-25T12:03:56.934Z,4.90
2022-09-25T12:06:58.243Z,5.37
2022-09-25T12:09:34.118Z,5.17
2022-09-25T12:12:10.269Z,5.10
2022-09-25T12:15:00.797Z,5.47
2022-09-25T12:17:49.324Z,6.27
2022-09-25T12:20:26.040Z,5.63
2022-09-25T12:23:23.554Z,9.77
2022-09-25T12:25:57.031Z,7.10
2022-09-25T12:28:37.050Z,5.50
2022-09-25T12:31:39.515Z,4.30
2022-09-25T12:34:19.255Z,3.67
2022-09-25T12:36:55.467Z,3.10
2022-09-25T12:39:34.219Z,3.70
2022-09-25T12:42:20.936Z,3.33
2022-09-25T12:45:12.761Z,4.00
2022-09-25T12:48:00.815Z,4.07
2022-09-25T12:50:37.254Z,2.73
2022-09-25T12:53:27.969Z,2.63
2022-09-25T12:56:15.710Z,2.07
2022-09-25T12:58:47.178Z,2.90
2022-09-25T13:01:20.716Z,3.47
2022-09-25T13:04:12.287Z,2.70
2022-09-25T13:06:52.011Z,2.80
2022-09-25T13:09:24.886Z,2.87
2022-09-25T13:12:05.505Z,2.27
2022-09-25T13:14:52.264Z,2.20
2022-09-25T13:17:19.980Z,1.47
2022-09-25T13:19:47.780Z,1.87
2022-09-25T13:22:26.538Z,1.57
2022-09-25T13:25:05.330Z,1.50
2022-09-25T13:27:42.533Z,1.23
2022-09-25T13:30:21.886Z,1.90
2022-09-25T13:32:54.399Z,1.43
2022-09-25T13:35:24.370Z,1.30
2022-09-25T13:38:35.202Z,2.07
2022-09-25T13:41:14.027Z,1.20
2022-09-25T13:43:41.637Z,1.10
2022-09-25T13:46:15.847Z,1.20
2022-09-25T13:48:43.839Z,1.30
2022-09-25T13:51:19.954Z,0.97
2022-09-25T13:54:03.797Z,1.87
2022-09-25T13:56:40.191Z,1.60
2022-09-25T13:59:10.750Z,1.10
2022-09-25T14:01:41.647Z,1.05
2022-09-25T14:04:13.840Z,1.50
2022-09-25T14:06:44.717Z,1.10
2022-09-25T14:09:22.048Z,1.20
2022-09-25T14:12:02.832Z,1.40
2022-09-25T14:14:42.728Z,0.87
2022-09-25T14:17:16.190Z,0.77
2022-09-25T14:19:46.131Z,0.90
2022-09-25T14:22:32.009Z,0.70
2022-09-25T14:25:00.031Z,0.77
2022-09-25T14:27:28.410Z,0.83
2022-09-25T14:30:13.859Z,0.70
2022-09-25T14:32:55.138Z,0.80
2022-09-25T14:35:37.011Z,0.60
2022-09-25T14:38:36.004Z,0.70
2022-09-25T14:41:04.988Z,0.80
2022-09-25T14:44:03.670Z,1.10
2022-09-25T14:46:34.107Z,1.10
2022-09-25T14:49:33.944Z,0.90
2022-09-25T14:52:06.281Z,1.00
2022-09-25T14:54:37.994Z,0.80
2022-09-25T14:57:07.695Z,0.83
2022-09-25T14:59:47.014Z,1.10
2022-09-25T15:02:33.993Z,0.83
2022-09-25T15:05:24.056Z,0.70
2022-09-25T15:07:51.516Z,1.10
2022-09-25T15:10:28.974Z,1.10
2022-09-25T15:13:05.999Z,0.70
2022-09-25T15:15:35.139Z,1.20
2022-09-25T15:18:04.712Z,0.80
2022-09-25T15:20:34.690Z,0.80
2022-09-25T15:23:16.924Z,1.40
2022-09-25T15:25:49.343Z,1.17
2022-09-25T15:28:19.992Z,0.90
2022-09-25T15:30:55.882Z,1.20
2022-09-25T15:33:31.621Z,0.90
2022-09-25T15:36:15.850Z,0.80
2022-09-25T15:38:44.486Z,1.00
2022-09-25T15:41:17.793Z,1.00
2022-09-25T15:43:45.184Z,1.23
2022-09-25T15:46:41.435Z,1.03
2022-09-25T15:49:13.840Z,1.07
2022-09-25T15:51:52.815Z,0.80
2022-09-25T15:54:31.335Z,1.00
2022-09-25T15:57:01.964Z,0.93
2022-09-25T15:59:58.337Z,0.87
2022-09-25T16:02:51.898Z,0.80
2022-09-25T16:05:26.953Z,0.70
2022-09-25T16:08:27.462Z,0.90
2022-09-25T16:11:16.766Z,1.00
2022-09-25T16:13:47.827Z,0.80
2022-09-25T16:16:30.580Z,1.07
2022-09-25T16:18:59.954Z,1.00
2022-09-25T16:21:29.180Z,0.80
2022-09-25T16:24:02.191Z,0.90
2022-09-25T16:26:42.105Z,0.80
2022-09-25T16:29:13.153Z,1.03
2022-09-25T16:31:43.336Z,1.00
2022-09-25T16:34:37.882Z,0.80
2022-09-25T16:37:18.474Z,1.00
2022-09-25T16:39:45.795Z,1.00
2022-09-25T16:42:35.586Z,0.90
2022-09-25T16:45:27.630Z,1.20
2022-09-25T16:47:58.433Z,1.20
2022-09-25T16:50:28.969Z,1.17
2022-09-25T16:52:56.767Z,1.40
2022-09-25T16:55:28.727Z,1.13
2022-09-25T16:57:57.366Z,1.07
2022-09-25T17:00:29.787Z,1.50
2022-09-25T17:02:57.320Z,1.60
2022-09-25T17:05:28.328Z,1.67
2022-09-25T17:07:57.938Z,1.30
2022-09-25T17:10:29.140Z,1.10
2022-09-25T17:13:00.724Z,1.20
2022-09-25T17:15:36.208Z,1.50
2022-09-25T17:18:11.872Z,1.30
2022-09-25T17:20:39.206Z,0.87
2022-09-25T17:23:07.017Z,1.03
2022-09-25T17:25:44.835Z,1.27
2022-09-25T17:28:15.254Z,1.10
2022-09-25T17:30:43.877Z,1.00
2022-09-25T17:33:17.878Z,1.87
2022-09-25T17:35:45.171Z,1.23
2022-09-25T17:38:13.535Z,1.43
2022-09-25T17:40:46.134Z,1.37
2022-09-25T17:43:15.095Z,1.60
2022-09-25T17:45:51.049Z,1.40
2022-09-25T17:48:24.274Z,1.87
2022-09-25T17:50:56.306Z,2.80
2022-09-25T17:53:28.467Z,4.70
2022-09-25T17:55:57.780Z,3.43
2022-09-25T17:58:26.615Z,2.30
2022-09-25T18:00:55.093Z,1.90
2022-09-25T18:03:22.745Z,1.90
2022-09-25T18:05:50.351Z,2.60
2022-09-25T18:08:19.144Z,2.30
2022-09-25T18:10:47.587Z,3.23
2022-09-25T18:13:20.024Z,2.00
2022-09-25T18:15:54.128Z,3.17
2022-09-25T18:18:22.416Z,2.90
2022-09-25T18:21:09.737Z,2.80
2022-09-25T18:23:38.605Z,2.50
2022-09-25T18:26:08.849Z,2.57
2022-09-25T18:28:36.189Z,2.47
2022-09-25T18:31:03.618Z,2.63
2022-09-25T18:33:31.403Z,2.30
2022-09-25T18:35:59.871Z,2.77
2022-09-25T18:38:27.600Z,3.00
2022-09-25T18:40:55.351Z,1.87
2022-09-25T18:43:22.731Z,2.10
2022-09-25T18:45:53.103Z,2.07
2022-09-25T18:48:21.321Z,1.77
2022-09-25T18:50:50.311Z,2.80
2022-09-25T18:53:18.104Z,2.97
2022-09-25T18:55:45.468Z,2.67
2022-09-25T18:58:13.200Z,3.67
2022-09-25T19:00:40.519Z,2.00
2022-09-25T19:03:07.916Z,1.90
2022-09-25T19:05:35.739Z,2.13
2022-09-25T19:08:04.847Z,1.77
2022-09-25T19:10:36.175Z,1.77
2022-09-25T19:13:04.205Z,2.07
2022-09-25T19:15:31.673Z,1.70
2022-09-25T19:17:59.430Z,1.63
2022-09-25T19:20:27.004Z,2.40
2022-09-25T19:22:54.309Z,1.77
2022-09-25T19:25:22.734Z,2.03
2022-09-25T19:27:50.456Z,1.70
2022-09-25T19:30:18.041Z,1.87
2022-09-25T19:32:45.789Z,1.80
2022-09-25T19:35:13.208Z,2.30
2022-09-25T19:37:42.053Z,1.97
2022-09-25T19:40:28.505Z,2.10
2022-09-25T19:42:57.888Z,2.00
2022-09-25T19:45:25.913Z,2.33
2022-09-25T19:47:53.215Z,2.10
2022-09-25T19:50:21.256Z,2.13
2022-09-25T19:52:51.073Z,2.27
2022-09-25T19:55:19.709Z,1.90
2022-09-25T19:57:47.683Z,2.20
2022-09-25T20:00:18.102Z,2.10
2022-09-25T20:02:46.900Z,1.97
2022-09-25T20:05:14.511Z,2.67
2022-09-25T20:07:42.261Z,2.97
2022-09-25T20:10:10.018Z,2.60
2022-09-25T20:12:37.675Z,2.60
2022-09-25T20:15:05.516Z,2.97
2022-09-25T20:17:32.802Z,2.70
2022-09-25T20:20:00.419Z,4.00
2022-09-25T20:22:27.961Z,3.90
2022-09-25T20:24:55.266Z,3.40
2022-09-25T20:27:23.573Z,4.03
2022-09-25T20:29:51.058Z,4.87
2022-09-25T20:32:18.719Z,4.57
2022-09-25T20:34:46.759Z,4.43
2022-09-25T20:37:14.095Z,5.50
2022-09-25T20:39:41.438Z,5.10
2022-09-25T20:42:09.298Z,4.20
2022-09-25T20:44:36.635Z,4.73
2022-09-25T20:47:04.229Z,5.10
2022-09-25T20:49:31.549Z,4.90
2022-09-25T20:52:00.144Z,5.33
2022-09-25T20:54:28.462Z,4.37
2022-09-25T20:56:55.862Z,4.60
2022-09-25T20:59:23.373Z,5.37
2022-09-25T21:01:51.251Z,5.50
2022-09-25T21:04:19.249Z,5.17
2022-09-25T21:06:46.943Z,5.20
2022-09-25T21:09:22.840Z,5.23
2022-09-25T21:11:50.511Z,4.57
2022-09-25T21:14:21.231Z,4.80
2022-09-25T21:16:49.447Z,4.90
2022-09-25T21:19:18.927Z,4.73
2022-09-25T21:21:46.803Z,3.90
2022-09-25T21:24:16.358Z,4.63
2022-09-25T21:26:45.619Z,4.30
2022-09-25T21:29:15.743Z,4.90
2022-09-25T21:31:49.030Z,5.00
2022-09-25T21:34:17.986Z,5.03
2022-09-25T21:36:45.916Z,4.40
2022-09-25T21:39:13.862Z,4.60
2022-09-25T21:41:41.263Z,4.87
2022-09-25T21:44:13.831Z,4.30
2022-09-25T21:46:41.285Z,3.90
2022-09-25T21:49:14.196Z,4.30
2022-09-25T21:51:43.999Z,3.60
2022-09-25T21:54:13.555Z,4.37
2022-09-25T21:56:41.404Z,4.23
2022-09-25T21:59:09.772Z,4.40
2022-09-25T22:01:39.955Z,4.03
2022-09-25T22:04:11.091Z,4.73
2022-09-25T22:06:41.524Z,4.90
2022-09-25T22:09:14.368Z,4.43
2022-09-25T22:11:42.776Z,4.60
2022-09-25T22:14:15.368Z,4.20
2022-09-25T22:16:45.440Z,4.47
2022-09-25T22:19:16.845Z,4.33
2022-09-25T22:21:46.530Z,3.63
2022-09-25T22:24:14.745Z,3.87
2022-09-25T22:26:48.116Z,3.60
2022-09-25T22:29:16.605Z,3.97
2022-09-25T22:31:44.259Z,3.43
2022-09-25T22:34:29.947Z,4.43
2022-09-25T22:36:59.969Z,4.10
2022-09-25T22:39:28.885Z,3.50
2022-09-25T22:41:57.099Z,4.07
2022-09-25T22:44:25.238Z,3.43
2022-09-25T22:46:52.544Z,3.50
2022-09-25T22:49:19.981Z,3.63
2022-09-25T22:51:47.993Z,3.43
2022-09-25T22:54:15.927Z,3.10
2022-09-25T22:56:44.003Z,3.40
2022-09-25T22:59:17.751Z,3.40
2022-09-25T23:01:51.213Z,3.20
2022-09-25T23:04:21.272Z,3.30
2022-09-25T23:06:49.525Z,4.00
2022-09-25T23:09:20.386Z,3.00
2022-09-25T23:11:48.111Z,3.43
2022-09-25T23:14:19.808Z,3.13
2022-09-25T23:16:49.354Z,3.07
2022-09-25T23:19:18.004Z,3.60
2022-09-25T23:21:45.490Z,3.10
2022-09-25T23:24:15.235Z,3.37
2022-09-25T23:26:43.612Z,3.30
2022-09-25T23:29:19.699Z,3.40
2022-09-25T23:31:48.424Z,2.40
2022-09-25T23:34:16.187Z,3.70
2022-09-25T23:36:43.640Z,3.40
2022-09-25T23:39:16.227Z,3.30
2022-09-25T23:41:45.121Z,3.60
2022-09-25T23:44:12.627Z,3.70
2022-09-25T23:46:41.901Z,3.73
2022-09-25T23:49:10.402Z,4.13
2022-09-25T23:51:38.787Z,3.40
2022-09-25T23:54:07.299Z,3.00
2022-09-25T23:56:35.304Z,3.70
2022-09-25T23:59:04.339Z,3.70
